Impacts TAF Board
For situational awareness. Not to be used for flight planning purposes.
IDs:

KBTR - Baton Rouge/Ryan Fld, LA, US

Issued at 0520 UTC 18 Sep 2021
Updated at 0755 UTC 18 Sep 2021
Potential Impact None Slight Moderate High
Time0713Z 18/08Z 18/09Z 18/10Z 18/11Z 18/12Z 18/13Z 18/14Z 18/15Z 18/16Z 18/17Z 18/18Z 18/19Z 18/20Z>>
Type OBS PRVL PRVL PRVL PRVL PRVL PRVL PRVL PRVL PRVL PRVL PRVL PRVL PRVL
VIS 10 >6 >6 >6 >6 >6 >6 >6 >6 >6 >6 >6 >6 >6
CIG 9 15 15 15 15 15 15 15 25 25 25 25 25 25
Cover BKN OVC OVC OVC OVC OVC OVC OVC BKN BKN BKN BKN BKN BKN
FltCat IFR MVFR MVFR MVFR MVFR MVFR MVFR MVFR MVFR MVFR MVFR MVFR MVFR MVFR
WX -- -- -- -- -- -- -- -- VCTS VCTS VCTS VCTS VCTS VCTS
WDir 130 VRB VRB VRB VRB VRB VRB VRB 140 140 140 140 140 140
WSpd 5 3 3 3 3 3 3 3 6 6 6 6 6 6
WGst -- -- -- -- -- -- -- -- -- -- -- -- -- --
Raw TAF
KBTR 180520Z 1806/1906 15007KT P6SM SCT010
  FM180800 VRB03KT P6SM OVC015
  FM181500 14006KT P6SM VCTS SCT020CB BKN025
  FM190200 11004KT P6SM OVC025


Raw METAR
KBTR 180713Z AUTO 13005KT 10SM BKN009 BKN013 23/23 A3000 RMK AO2 CIG 006V013 T02330233
KBTR 180653Z AUTO 14005KT 10SM FEW004 FEW011 23/23 A3000 RMK AO2 SLP157 T02330233
KBTR 180643Z AUTO 12006KT 10SM FEW004 23/23 A3000 RMK AO2 T02330233
KBTR 180553Z AUTO 09003KT 10SM CLR 23/23 A3000 RMK AO2 SLP158 T02330233 10250 20233 403110228 53004
KBTR 180453Z 15004KT 10SM CLR 24/24 A3000 RMK AO2 SLP159 T02390239

METAR Board
Radar Display
Forecast Discussion
For situational awareness. Not to be used for flight planning purposes.